createdAt,value
2017-11-07T00:02:10.807Z,85.51
2017-11-07T00:04:39.095Z,85.20
2017-11-07T00:07:06.741Z,85.23
2017-11-07T00:09:34.311Z,85.09
2017-11-07T00:12:01.799Z,85.22
2017-11-07T00:14:36.485Z,85.09
2017-11-07T00:17:17.069Z,85.06
2017-11-07T00:19:45.682Z,85.27
2017-11-07T00:22:16.813Z,85.41
2017-11-07T00:24:44.671Z,85.48
2017-11-07T00:27:15.632Z,85.63
2017-11-07T00:29:44.448Z,85.37
2017-11-07T00:32:13.673Z,85.29
2017-11-07T00:34:42.430Z,85.21
2017-11-07T00:37:11.339Z,85.01
2017-11-07T00:39:39.271Z,85.09
2017-11-07T00:42:06.864Z,85.20
2017-11-07T00:44:34.373Z,85.31
2017-11-07T00:47:01.856Z,84.87
2017-11-07T00:49:30.405Z,85.01
2017-11-07T00:51:58.501Z,85.43
2017-11-07T00:54:26.271Z,85.19
2017-11-07T00:56:53.754Z,85.11
2017-11-07T00:59:21.283Z,85.01
2017-11-07T01:01:48.819Z,85.23
2017-11-07T01:04:16.339Z,85.34
2017-11-07T01:06:43.855Z,85.43
2017-11-07T01:09:11.331Z,85.66
2017-11-07T01:11:39.113Z,85.80
2017-11-07T01:14:06.711Z,86.16
2017-11-07T01:16:34.259Z,86.44
2017-11-07T01:19:01.719Z,86.64
2017-11-07T01:21:29.294Z,86.60
2017-11-07T01:23:56.781Z,86.41
2017-11-07T01:26:24.305Z,86.37
2017-11-07T01:28:52.094Z,86.18
2017-11-07T01:31:24.619Z,86.12
2017-11-07T01:33:52.366Z,86.26
2017-11-07T01:36:20.467Z,85.96
2017-11-07T01:38:47.952Z,85.94
2017-11-07T01:41:15.428Z,85.78
2017-11-07T01:43:43.113Z,85.70
2017-11-07T01:46:10.608Z,85.26
2017-11-07T01:48:38.880Z,85.46
2017-11-07T01:51:06.642Z,85.58
2017-11-07T01:53:34.159Z,85.83
2017-11-07T01:56:01.618Z,85.61
2017-11-07T01:58:29.149Z,85.68
2017-11-07T02:00:56.680Z,85.56
2017-11-07T02:03:24.201Z,85.79
2017-11-07T02:05:51.707Z,86.08
2017-11-07T02:08:19.600Z,85.86
2017-11-07T02:10:47.110Z,86.02
2017-11-07T02:13:14.676Z,85.83
2017-11-07T02:15:42.212Z,85.93
2017-11-07T02:18:09.689Z,85.59
2017-11-07T02:20:37.246Z,84.99
2017-11-07T02:23:04.738Z,84.94
2017-11-07T02:25:32.583Z,85.29
2017-11-07T02:28:00.165Z,85.49
2017-11-07T02:30:27.624Z,85.32
2017-11-07T02:32:55.176Z,85.49
2017-11-07T02:35:25.783Z,85.48
2017-11-07T02:37:53.265Z,85.35
2017-11-07T02:40:20.749Z,85.28
2017-11-07T02:42:48.557Z,85.44
2017-11-07T02:45:16.035Z,85.46
2017-11-07T02:47:43.579Z,85.33
2017-11-07T02:50:11.065Z,85.35
2017-11-07T02:52:38.599Z,85.17
2017-11-07T02:55:06.066Z,85.17
2017-11-07T02:57:33.567Z,85.31
2017-11-07T03:00:01.362Z,85.39
2017-11-07T03:02:28.846Z,85.17
2017-11-07T03:04:56.330Z,85.34
2017-11-07T03:07:23.819Z,85.16
2017-11-07T03:09:51.309Z,85.05
2017-11-07T03:12:18.817Z,84.88
2017-11-07T03:14:46.307Z,84.71
2017-11-07T03:17:13.806Z,84.44
2017-11-07T03:19:41.289Z,84.24
2017-11-07T03:22:08.798Z,84.15
2017-11-07T03:24:36.265Z,84.05
2017-11-07T03:27:03.731Z,84.29
2017-11-07T03:29:31.682Z,84.53
2017-11-07T03:31:59.189Z,84.71
2017-11-07T03:34:26.999Z,84.52
2017-11-07T03:36:54.472Z,84.08
2017-11-07T03:39:21.936Z,83.54
2017-11-07T03:41:49.525Z,83.27
2017-11-07T03:44:17.023Z,83.70
2017-11-07T03:46:44.547Z,83.99
2017-11-07T03:49:12.023Z,84.19
2017-11-07T03:51:39.811Z,83.41
2017-11-07T03:54:07.324Z,83.51
2017-11-07T03:56:34.860Z,83.62
2017-11-07T03:59:02.388Z,83.79
2017-11-07T04:01:29.930Z,83.87
2017-11-07T04:03:57.474Z,83.88
2017-11-07T04:06:24.972Z,83.84
2017-11-07T04:08:52.489Z,84.01
2017-11-07T04:11:19.968Z,83.29
2017-11-07T04:13:47.713Z,83.33
2017-11-07T04:16:15.167Z,83.29
2017-11-07T04:18:42.637Z,83.25
2017-11-07T04:21:10.144Z,83.17
2017-11-07T04:23:37.676Z,83.39
2017-11-07T04:26:05.277Z,83.45
2017-11-07T04:28:32.762Z,83.68
2017-11-07T04:31:00.328Z,83.13
2017-11-07T04:33:27.878Z,83.01
2017-11-07T04:35:55.410Z,83.35
2017-11-07T04:38:22.952Z,83.33
2017-11-07T04:40:50.468Z,83.11
2017-11-07T04:43:17.968Z,83.08
2017-11-07T04:45:45.471Z,83.19
2017-11-07T04:48:13.253Z,83.18
2017-11-07T04:50:40.725Z,83.59
2017-11-07T04:53:08.224Z,83.51
2017-11-07T04:55:35.707Z,83.22
2017-11-07T04:58:03.197Z,83.37
2017-11-07T05:00:30.692Z,83.56
2017-11-07T05:02:58.206Z,83.28
2017-11-07T05:05:25.731Z,83.40
2017-11-07T05:07:53.196Z,83.41
2017-11-07T05:10:20.705Z,83.69
2017-11-07T05:12:48.233Z,83.70
2017-11-07T05:15:15.717Z,84.14
2017-11-07T05:17:43.199Z,84.12
2017-11-07T05:20:10.698Z,84.13
2017-11-07T05:22:38.188Z,84.06
2017-11-07T05:25:05.841Z,84.06
2017-11-07T05:27:33.395Z,84.05
2017-11-07T05:30:00.941Z,84.01
2017-11-07T05:32:28.537Z,83.96
2017-11-07T05:34:56.109Z,83.93
2017-11-07T05:37:23.639Z,83.88
2017-11-07T05:39:51.527Z,84.18
2017-11-07T05:42:20.369Z,84.35
2017-11-07T05:44:47.924Z,84.55
2017-11-07T05:47:15.498Z,84.48
2017-11-07T05:49:43.037Z,84.48
2017-11-07T05:52:10.584Z,84.42
2017-11-07T05:54:38.151Z,84.52
2017-11-07T05:57:05.807Z,84.62
2017-11-07T05:59:33.368Z,84.63
2017-11-07T06:02:00.923Z,84.67
2017-11-07T06:04:28.896Z,84.64
2017-11-07T06:06:56.455Z,84.46
2017-11-07T06:09:24.032Z,84.31
2017-11-07T06:11:52.598Z,84.63
2017-11-07T06:14:20.863Z,84.33
2017-11-07T06:16:48.392Z,84.35
2017-11-07T06:19:16.480Z,84.31
2017-11-07T06:21:44.016Z,84.29
2017-11-07T06:24:12.462Z,84.53
2017-11-07T06:26:40.025Z,84.45
2017-11-07T06:29:07.595Z,84.44
2017-11-07T06:34:47.097Z,84.34
2017-11-07T06:37:14.661Z,84.42
2017-11-07T06:39:42.775Z,84.40
2017-11-07T06:42:20.364Z,84.28
2017-11-07T06:44:47.881Z,84.22
2017-11-07T06:47:15.430Z,84.32
2017-11-07T06:49:42.946Z,84.35
2017-11-07T06:52:10.448Z,84.24
2017-11-07T06:54:38.876Z,84.37
2017-11-07T06:57:06.837Z,84.34
2017-11-07T06:59:34.659Z,84.31
2017-11-07T07:02:02.130Z,84.34
2017-11-07T07:04:29.914Z,84.41
2017-11-07T07:06:57.410Z,84.34
2017-11-07T07:09:25.043Z,84.42
2017-11-07T07:11:52.681Z,84.50
2017-11-07T07:14:20.205Z,84.81
2017-11-07T07:16:47.826Z,84.74
2017-11-07T07:19:15.316Z,84.64
2017-11-07T07:21:43.165Z,85.06
2017-11-07T07:24:10.676Z,85.39
2017-11-07T07:26:38.501Z,84.78
2017-11-07T07:29:06.033Z,84.02
2017-11-07T07:31:33.654Z,83.07
2017-11-07T07:34:01.198Z,82.62
2017-11-07T07:36:28.791Z,82.44
2017-11-07T07:38:56.318Z,82.42
2017-11-07T07:41:23.850Z,82.53
2017-11-07T07:43:51.361Z,82.74
2017-11-07T07:46:18.862Z,83.17
2017-11-07T07:48:46.399Z,83.66
2017-11-07T07:51:13.871Z,83.89
2017-11-07T07:53:41.363Z,83.82
2017-11-07T07:56:08.876Z,84.20
2017-11-07T07:58:36.398Z,83.88
2017-11-07T08:01:03.984Z,84.04
2017-11-07T08:03:31.496Z,84.03
2017-11-07T08:05:59.019Z,84.21
2017-11-07T08:08:26.541Z,84.54
2017-11-07T08:10:54.110Z,84.37
2017-11-07T08:13:21.606Z,84.44
2017-11-07T08:15:49.262Z,84.46
2017-11-07T08:18:16.786Z,84.37
2017-11-07T08:20:44.320Z,84.72
2017-11-07T08:23:11.804Z,84.60
2017-11-07T08:25:39.299Z,84.21
2017-11-07T08:28:06.795Z,84.38
2017-11-07T08:30:34.308Z,84.45
2017-11-07T08:33:01.822Z,84.40
2017-11-07T08:35:29.345Z,84.43
2017-11-07T08:37:56.852Z,84.23
2017-11-07T08:40:24.355Z,84.21
2017-11-07T08:42:51.833Z,84.40
2017-11-07T08:45:19.527Z,84.35
2017-11-07T08:47:47.027Z,83.71
2017-11-07T08:50:14.524Z,83.87
2017-11-07T08:52:42.019Z,84.09
2017-11-07T08:55:09.533Z,84.14
2017-11-07T08:57:37.037Z,83.90
2017-11-07T09:00:04.550Z,84.13
2017-11-07T09:02:32.113Z,84.35
2017-11-07T09:04:59.606Z,84.44
2017-11-07T09:07:27.132Z,84.33
2017-11-07T09:09:54.613Z,84.24
2017-11-07T09:12:22.121Z,84.16
2017-11-07T09:14:49.640Z,83.95
2017-11-07T09:17:17.133Z,84.02
2017-11-07T09:19:44.649Z,83.88
2017-11-07T09:22:12.201Z,84.35
2017-11-07T09:24:40.905Z,84.37
2017-11-07T09:27:10.422Z,84.36
2017-11-07T09:29:37.981Z,83.97
2017-11-07T09:32:05.503Z,83.98
2017-11-07T09:34:33.049Z,84.10
2017-11-07T09:37:00.631Z,84.39
2017-11-07T09:39:28.179Z,84.20
2017-11-07T09:41:55.764Z,83.84
2017-11-07T09:44:23.293Z,83.54
2017-11-07T09:46:51.129Z,83.33
2017-11-07T09:49:18.619Z,83.56
2017-11-07T09:51:48.170Z,83.58
2017-11-07T09:54:15.726Z,83.73
2017-11-07T09:56:43.231Z,83.77
2017-11-07T09:59:10.746Z,83.50
2017-11-07T10:01:38.331Z,83.69
2017-11-07T10:04:10.018Z,83.88
2017-11-07T10:06:37.526Z,84.27
2017-11-07T10:09:06.188Z,83.97
2017-11-07T10:11:33.707Z,84.16
2017-11-07T10:14:01.263Z,84.14
2017-11-07T10:16:29.361Z,83.79
2017-11-07T10:18:56.935Z,84.13
2017-11-07T10:21:24.515Z,84.25
2017-11-07T10:26:44.293Z,84.46
2017-11-07T10:29:11.916Z,84.53
2017-11-07T10:31:39.389Z,84.19
2017-11-07T10:34:06.886Z,84.74
2017-11-07T11:11:20.484Z,62.65
2017-11-07T11:13:47.975Z,65.93
2017-11-07T11:16:15.478Z,69.40
2017-11-07T11:18:43.224Z,72.88
2017-11-07T11:21:10.782Z,75.74
2017-11-07T11:23:38.315Z,77.53
2017-11-07T11:26:05.948Z,79.01
2017-11-07T11:28:33.431Z,79.97
2017-11-07T11:31:00.969Z,80.76
2017-11-07T11:33:28.483Z,81.38
2017-11-07T11:35:55.996Z,81.27
2017-11-07T11:38:24.232Z,81.52
2017-11-07T11:40:51.694Z,82.10
2017-11-07T11:43:19.179Z,82.23
2017-11-07T11:45:46.669Z,82.46
2017-11-07T11:48:14.178Z,82.86
2017-11-07T11:50:41.674Z,82.63
2017-11-07T11:53:09.185Z,82.90
2017-11-07T11:55:36.725Z,83.01
2017-11-07T11:58:04.178Z,83.11
2017-11-07T12:00:31.765Z,83.10
2017-11-07T12:02:59.223Z,83.35
2017-11-07T12:05:26.726Z,83.63
2017-11-07T12:07:54.209Z,83.53
2017-11-07T12:10:21.678Z,83.75
2017-11-07T12:12:49.208Z,83.69
2017-11-07T12:15:16.692Z,83.69
2017-11-07T12:17:44.878Z,83.72
2017-11-07T12:20:13.698Z,83.86
2017-11-07T12:22:41.230Z,83.72
2017-11-07T12:25:08.815Z,84.15
2017-11-07T12:27:36.370Z,84.15
2017-11-07T12:30:03.965Z,84.12
2017-11-07T12:32:42.254Z,83.89
2017-11-07T12:35:10.203Z,84.46
2017-11-07T12:37:38.226Z,84.58
2017-11-07T12:40:05.756Z,84.80
2017-11-07T12:42:38.302Z,84.30
2017-11-07T12:45:05.963Z,83.99
2017-11-07T12:47:33.463Z,83.57
2017-11-07T12:50:12.625Z,83.63
2017-11-07T12:52:40.793Z,83.23
2017-11-07T12:55:09.059Z,83.14
2017-11-07T12:57:38.325Z,82.71
2017-11-07T13:00:05.835Z,82.87
2017-11-07T13:02:33.325Z,83.28
2017-11-07T13:05:00.846Z,83.62
2017-11-07T13:07:28.301Z,84.14
2017-11-07T13:09:55.827Z,84.23
2017-11-07T13:12:23.344Z,84.52
2017-11-07T13:14:50.917Z,84.62
2017-11-07T13:17:18.392Z,84.17
2017-11-07T13:19:45.920Z,84.22
2017-11-07T13:22:27.801Z,84.18
2017-11-07T13:24:55.293Z,84.29
2017-11-07T13:27:22.792Z,84.23
2017-11-07T13:29:50.328Z,84.31
2017-11-07T13:32:22.870Z,84.31
2017-11-07T13:34:50.427Z,84.10
2017-11-07T13:37:17.991Z,84.36
2017-11-07T13:39:49.157Z,84.42
2017-11-07T13:42:16.713Z,84.46
2017-11-07T13:44:44.301Z,84.58
2017-11-07T13:47:11.894Z,84.50
2017-11-07T13:49:39.335Z,84.68
2017-11-07T13:52:26.145Z,84.78
2017-11-07T13:54:54.537Z,85.21
2017-11-07T13:57:22.081Z,85.16
2017-11-07T13:59:51.058Z,85.01
2017-11-07T14:02:32.865Z,85.07
2017-11-07T14:05:00.322Z,85.20
2017-11-07T14:07:27.831Z,85.29
2017-11-07T14:09:55.395Z,85.70
2017-11-07T14:12:23.750Z,85.96
2017-11-07T14:14:51.944Z,86.01
2017-11-07T14:17:33.774Z,85.88
2017-11-07T14:20:01.538Z,86.22
2017-11-07T14:22:29.005Z,86.17
2017-11-07T14:24:58.090Z,86.01
2017-11-07T14:27:27.034Z,86.10
2017-11-07T14:29:54.587Z,85.72
2017-11-07T14:32:29.243Z,85.77
2017-11-07T14:35:05.218Z,85.83
2017-11-07T14:37:35.004Z,85.78
2017-11-07T14:40:08.202Z,85.97
2017-11-07T14:42:36.060Z,86.08
2017-11-07T14:45:03.593Z,86.44
2017-11-07T14:47:31.166Z,86.42
2017-11-07T14:49:58.648Z,86.07
2017-11-07T14:52:26.157Z,86.25
2017-11-07T14:54:55.838Z,86.35
2017-11-07T14:57:23.498Z,86.22
2017-11-07T14:59:51.119Z,85.99
2017-11-07T15:02:18.645Z,86.06
2017-11-07T15:04:47.413Z,85.97
2017-11-07T15:07:15.748Z,85.78
2017-11-07T15:09:43.442Z,85.72
2017-11-07T15:12:10.954Z,85.81
2017-11-07T15:14:38.530Z,85.65
2017-11-07T15:17:06.055Z,85.58
2017-11-07T15:19:33.732Z,85.70
2017-11-07T15:22:01.326Z,85.32
2017-11-07T15:24:28.900Z,85.56
2017-11-07T15:26:56.368Z,85.35
2017-11-07T15:29:23.861Z,85.18
2017-11-07T15:32:10.629Z,85.35
2017-11-07T15:34:38.221Z,85.48
2017-11-07T15:37:05.695Z,85.54
2017-11-07T15:39:33.324Z,85.54
2017-11-07T15:42:00.824Z,85.44
2017-11-07T15:44:28.393Z,85.24
2017-11-07T15:46:55.977Z,85.46
2017-11-07T15:49:24.348Z,85.59
2017-11-07T15:51:51.934Z,85.63
2017-11-07T15:54:19.436Z,85.75
2017-11-07T15:56:46.998Z,85.53
2017-11-07T15:59:14.554Z,85.73
2017-11-07T16:01:42.906Z,85.83
2017-11-07T16:04:10.450Z,85.89
2017-11-07T16:06:38.001Z,85.77
2017-11-07T16:09:05.526Z,85.66
2017-11-07T16:11:33.182Z,85.35
2017-11-07T16:14:00.684Z,85.35
2017-11-07T16:16:28.264Z,85.26
2017-11-07T16:18:55.808Z,85.37
2017-11-07T16:21:23.406Z,85.41
2017-11-07T16:23:50.984Z,85.33
2017-11-07T16:26:18.523Z,85.50
2017-11-07T16:28:46.097Z,85.64
2017-11-07T16:31:18.855Z,85.67
2017-11-07T16:33:46.357Z,85.75
2017-11-07T16:36:13.913Z,85.58
2017-11-07T16:38:41.455Z,85.39
2017-11-07T16:41:08.926Z,85.48
2017-11-07T16:43:36.762Z,85.49
2017-11-07T16:46:04.780Z,85.35
2017-11-07T16:48:32.275Z,85.47
2017-11-07T16:51:00.980Z,85.51
2017-11-07T16:53:28.473Z,85.52
2017-11-07T16:55:56.024Z,85.38
2017-11-07T16:58:23.538Z,85.36
2017-11-07T17:00:51.087Z,85.56
2017-11-07T17:03:18.617Z,85.41
2017-11-07T17:05:46.217Z,85.35
2017-11-07T17:08:14.150Z,85.43
2017-11-07T17:10:41.668Z,85.02
2017-11-07T17:13:09.265Z,84.98
2017-11-07T17:15:36.835Z,85.33
2017-11-07T17:18:04.325Z,85.29
2017-11-07T17:20:32.363Z,85.34
2017-11-07T17:22:59.847Z,85.19
2017-11-07T17:25:27.332Z,85.33
2017-11-07T17:27:55.665Z,85.52
2017-11-07T17:30:23.158Z,85.45
2017-11-07T17:32:50.673Z,85.25
2017-11-07T17:35:18.322Z,85.29
2017-11-07T17:37:45.841Z,85.38
2017-11-07T17:40:13.436Z,85.37
2017-11-07T17:42:41.146Z,85.42
2017-11-07T17:45:08.633Z,85.89
2017-11-07T17:47:36.224Z,85.99
2017-11-07T17:50:03.757Z,85.74
2017-11-07T17:52:31.540Z,85.75
2017-11-07T17:54:59.064Z,85.80
2017-11-07T17:57:26.529Z,85.77
2017-11-07T17:59:54.030Z,85.66
2017-11-07T18:02:21.613Z,85.68
2017-11-07T18:04:49.117Z,86.05
2017-11-07T18:07:16.681Z,85.86
2017-11-07T18:09:44.228Z,85.78
2017-11-07T18:12:11.761Z,85.71
2017-11-07T18:14:39.442Z,85.82
2017-11-07T18:17:07.014Z,85.93
2017-11-07T18:19:34.554Z,86.06
2017-11-07T18:22:02.070Z,86.00
2017-11-07T18:24:29.773Z,85.89
2017-11-07T18:26:57.352Z,85.84
2017-11-07T18:29:24.809Z,85.96
2017-11-07T18:32:01.889Z,86.31
2017-11-07T18:34:29.393Z,86.31
2017-11-07T18:36:56.958Z,86.00
2017-11-07T18:39:24.481Z,86.10
2017-11-07T18:41:52.029Z,86.27
2017-11-07T18:44:19.576Z,86.56
2017-11-07T18:46:47.123Z,86.44
2017-11-07T18:49:14.935Z,86.33
2017-11-07T18:51:42.445Z,86.43
2017-11-07T18:54:10.027Z,86.17
2017-11-07T18:56:37.564Z,86.37
2017-11-07T18:59:05.084Z,86.16
2017-11-07T19:01:32.603Z,85.95
2017-11-07T19:04:00.167Z,85.98
2017-11-07T19:06:27.659Z,85.89
2017-11-07T19:08:55.184Z,85.98
2017-11-07T19:11:22.773Z,86.12
2017-11-07T19:13:50.374Z,86.32
2017-11-07T19:16:18.000Z,86.24
2017-11-07T19:18:45.524Z,85.94
2017-11-07T19:21:13.120Z,86.22
2017-11-07T19:23:40.626Z,86.48
2017-11-07T19:26:08.346Z,86.46
2017-11-07T19:28:35.885Z,86.58
2017-11-07T19:31:03.412Z,86.65
2017-11-07T19:33:30.917Z,86.64
2017-11-07T19:35:58.497Z,86.43
2017-11-07T19:38:26.048Z,86.38
2017-11-07T19:40:53.564Z,86.35
2017-11-07T19:43:21.144Z,86.50
2017-11-07T19:45:48.727Z,86.52
2017-11-07T19:48:16.259Z,86.60
2017-11-07T19:50:43.829Z,86.64
2017-11-07T19:53:11.342Z,86.58
2017-11-07T19:55:38.858Z,86.59
2017-11-07T19:58:06.383Z,86.84
2017-11-07T20:00:33.975Z,86.99
2017-11-07T20:03:01.576Z,86.87
2017-11-07T20:05:29.135Z,86.92
2017-11-07T20:07:56.599Z,87.08
2017-11-07T20:10:24.127Z,87.04
2017-11-07T20:12:51.664Z,87.08
2017-11-07T20:15:19.238Z,86.97
2017-11-07T20:17:46.733Z,87.00
2017-11-07T20:20:14.255Z,87.17
2017-11-07T20:22:41.791Z,87.17
2017-11-07T20:25:09.312Z,87.08
2017-11-07T20:27:36.798Z,87.05
2017-11-07T20:30:04.360Z,86.84
2017-11-07T20:32:31.946Z,86.87
2017-11-07T20:34:59.481Z,87.02
2017-11-07T20:37:26.989Z,86.86
2017-11-07T20:39:56.585Z,86.86
2017-11-07T20:42:25.367Z,87.10
2017-11-07T20:44:52.919Z,87.16
2017-11-07T20:47:20.463Z,87.21
2017-11-07T20:49:48.004Z,87.43
2017-11-07T20:52:16.528Z,87.35
2017-11-07T20:54:44.042Z,87.52
2017-11-07T20:57:11.588Z,87.57
2017-11-07T20:59:39.157Z,87.51
2017-11-07T21:02:06.659Z,87.58
2017-11-07T21:04:34.364Z,87.69
2017-11-07T21:07:01.920Z,87.74
2017-11-07T21:09:29.466Z,87.81
2017-11-07T21:11:56.943Z,87.81
2017-11-07T21:14:24.425Z,87.96
2017-11-07T21:16:51.954Z,87.81
2017-11-07T21:19:19.431Z,87.68
2017-11-07T21:21:53.357Z,87.66
2017-11-07T21:24:20.895Z,87.32
2017-11-07T21:26:48.388Z,87.44
2017-11-07T21:29:15.876Z,87.31
2017-11-07T21:31:43.332Z,86.91
2017-11-07T21:34:11.671Z,86.93
2017-11-07T21:36:39.228Z,86.95
2017-11-07T21:39:06.706Z,87.10
2017-11-07T21:41:34.183Z,87.15
2017-11-07T21:44:01.670Z,87.16
2017-11-07T21:46:29.135Z,87.11
2017-11-07T21:48:56.623Z,86.76
2017-11-07T21:51:24.096Z,86.80
2017-11-07T21:53:51.559Z,86.95
2017-11-07T21:56:19.085Z,86.87
2017-11-07T21:58:46.593Z,86.85
2017-11-07T22:01:14.185Z,86.53
2017-11-07T22:03:41.693Z,86.45
2017-11-07T22:06:09.161Z,86.11
2017-11-07T22:08:36.640Z,86.05
2017-11-07T22:11:04.202Z,86.24
2017-11-07T22:13:31.686Z,86.26
2017-11-07T22:15:59.272Z,86.27
2017-11-07T22:18:27.022Z,86.20
2017-11-07T22:20:54.816Z,86.04
2017-11-07T22:23:26.910Z,86.27
2017-11-07T22:28:26.181Z,86.47
2017-11-07T22:30:54.886Z,86.50
2017-11-07T22:33:22.651Z,86.47
2017-11-07T22:35:50.390Z,86.29
2017-11-07T22:38:18.051Z,86.41
2017-11-07T22:40:45.531Z,86.50
2017-11-07T22:43:13.010Z,86.57
2017-11-07T22:45:40.498Z,86.56
2017-11-07T22:48:08.010Z,86.70
2017-11-07T22:50:35.566Z,86.38
2017-11-07T22:55:56.368Z,86.25
2017-11-07T22:58:23.966Z,86.26
2017-11-07T23:00:51.550Z,86.47
2017-11-07T23:03:19.342Z,86.57
2017-11-07T23:05:46.860Z,86.86
2017-11-07T23:08:14.372Z,87.12
2017-11-07T23:10:41.923Z,87.10
2017-11-07T23:13:13.469Z,87.03
2017-11-07T23:15:41.470Z,86.78
2017-11-07T23:18:08.917Z,87.01
2017-11-07T23:20:37.264Z,87.04
2017-11-07T23:23:19.342Z,87.07
2017-11-07T23:25:46.834Z,87.10
2017-11-07T23:28:14.419Z,86.87
2017-11-07T23:30:41.923Z,86.79
2017-11-07T23:33:09.858Z,86.69
2017-11-07T23:35:37.334Z,86.83
2017-11-07T23:38:05.036Z,86.83
2017-11-07T23:40:32.511Z,86.80
2017-11-07T23:43:00.252Z,86.33
2017-11-07T23:45:27.774Z,86.56
2017-11-07T23:47:55.259Z,86.69
2017-11-07T23:50:25.035Z,86.68
2017-11-07T23:52:53.489Z,86.59
2017-11-07T23:55:21.235Z,86.41
2017-11-07T23:57:48.776Z,86.38
